Packwood, WA (98361)

4:36 PM PDT on August 30, 2015 (GMT -0700)
APRSWXNET | | Change Station
CLOSE
Current Station
Personal Weather Station
Location: Packwood, WA
Elevation: 1290 ft
Nearby Weather Stations

Elev 1290 ft 46.61 °N, 121.66 °W | Updated 23 minutes ago

Partly Cloudy
Partly Cloudy
66 °F
Feels Like 66 °F
N
0
Wind Variable Wind from ESE
Gusts 1.0 mph

Today
High -- | Low -- °F
--% Chance of Precip.
Yesterday
High -- | Low -- °F
Precip. -- in
6:23 AM 7:49 PM
Full, 98% visible
Pressure 29.98 in
Visibility 10.0 miles
Clouds Scattered Clouds 3100 ft
Scattered Clouds 4100 ft
Mostly Cloudy 5000 ft
Dew Point 59 °F
Humidity 78%
Rainfall in
Snow Depth Not available.
UV 2 out of 12
Pollen .80 out of 12
Air Quality Not available.
Flu Activity Not available.
METAR KPLU 302315Z AUTO 00000KT 10SM SCT031 SCT041 BKN050 19/14 A2998 RMK AO2
Pressure 29.98 in
Visibility 10.0 miles
Clouds Scattered Clouds 3100 ft
Scattered Clouds 4100 ft
Mostly Cloudy 5000 ft
Dew Point 59 °F
Humidity 78%
Rainfall in
Snow Depth Not available.
UV 2 out of 12
Pollen .80 out of 12
Air Quality Not available.
Flu Activity Not available.
METAR KPLU 302315Z AUTO 00000KT 10SM SCT031 SCT041 BKN050 19/14 A2998 RMK AO2

10-Day Weather Forecast

×

Almanac

Astronomy

Aug. 30, 2015 Rise Set
Actual Time
Civil Twilight
Nautical Twilight
Astronomical Twilight
Moon
Length of Visible Light
Length of Day
Tomorrow will be .
, % of the Moon is Illuminated

Today's Extremes

State Highs State Lows

Community

WunderPhotos

Upload Photos

1,851,090 photos uploaded!

WunderBlogs® & News

Nearby

Air Quality

  Air Quality AQ Index Pollutant
Not available.

Snow Depth

Station Depth Elevation

Earthquake Activity

City Distance Mag. Time & Date
Minimum magnitude displayed is 2.5.

Coastal Water Temperatures

Place Temperature

Stations

Nearby Weather Stations

Station Location Temp. Windchill Dew Point Humidity Wind Precip. Elev Updated Type